createdAt,value
2018-03-18T00:01:55.454Z,20.93
2018-03-18T00:04:22.932Z,19.33
2018-03-18T00:06:50.495Z,20.17
2018-03-18T00:09:17.982Z,20.40
2018-03-18T00:11:46.217Z,21.37
2018-03-18T00:14:13.765Z,22.63
2018-03-18T00:16:41.270Z,21.90
2018-03-18T00:19:08.829Z,22.87
2018-03-18T00:21:36.389Z,23.03
2018-03-18T00:24:04.805Z,22.50
2018-03-18T00:26:32.283Z,22.50
2018-03-18T00:28:59.765Z,24.07
2018-03-18T00:31:27.342Z,24.17
2018-03-18T00:33:55.585Z,23.97
2018-03-18T00:36:24.297Z,24.07
2018-03-18T00:38:51.864Z,24.77
2018-03-18T00:41:20.178Z,23.53
2018-03-18T00:43:47.693Z,24.10
2018-03-18T00:46:15.262Z,22.57
2018-03-18T00:48:43.642Z,24.67
2018-03-18T00:51:11.904Z,23.83
2018-03-18T00:53:39.381Z,23.80
2018-03-18T00:56:07.618Z,24.47
2018-03-18T00:58:35.098Z,24.93
2018-03-18T01:01:02.659Z,23.47
2018-03-18T01:03:30.933Z,25.03
2018-03-18T01:05:59.323Z,24.70
2018-03-18T01:08:27.598Z,23.27
2018-03-18T01:10:55.961Z,23.13
2018-03-18T01:13:23.530Z,23.83
2018-03-18T01:15:51.838Z,24.37
2018-03-18T01:18:19.461Z,23.60
2018-03-18T01:20:47.707Z,24.27
2018-03-18T01:23:15.189Z,26.23
2018-03-18T01:25:42.678Z,25.33
2018-03-18T01:28:10.509Z,24.10
2018-03-18T01:30:37.994Z,24.17
2018-03-18T01:33:05.532Z,24.17
2018-03-18T01:35:33.770Z,24.67
2018-03-18T01:38:01.255Z,24.10
2018-03-18T01:40:29.130Z,22.57
2018-03-18T01:42:57.509Z,23.53
2018-03-18T01:45:25.786Z,22.77
2018-03-18T01:47:54.258Z,22.30
2018-03-18T01:50:21.737Z,23.63
2018-03-18T01:53:02.732Z,25.50
2018-03-18T01:55:30.254Z,23.50
2018-03-18T01:57:58.529Z,23.30
2018-03-18T02:00:26.779Z,23.50
2018-03-18T02:02:54.265Z,22.90
2018-03-18T02:05:22.601Z,24.80
2018-03-18T02:07:50.082Z,23.57
2018-03-18T02:10:17.583Z,23.07
2018-03-18T02:12:45.117Z,22.90
2018-03-18T02:15:13.363Z,24.53
2018-03-18T02:17:40.833Z,23.60
2018-03-18T02:20:08.306Z,22.57
2018-03-18T02:22:36.722Z,22.67
2018-03-18T02:25:04.234Z,22.60
2018-03-18T02:27:31.773Z,21.93
2018-03-18T02:29:59.253Z,24.03
2018-03-18T02:32:26.738Z,21.37
2018-03-18T02:34:54.471Z,22.87
2018-03-18T02:37:21.950Z,22.70
2018-03-18T02:39:49.489Z,22.33
2018-03-18T02:42:16.968Z,23.40
2018-03-18T02:44:44.469Z,22.13
2018-03-18T02:47:12.176Z,21.60
2018-03-18T02:49:40.423Z,21.00
2018-03-18T02:52:08.067Z,21.43
2018-03-18T02:54:36.007Z,23.33
2018-03-18T02:57:03.758Z,20.37
2018-03-18T02:59:31.246Z,23.23
2018-03-18T03:01:58.750Z,21.03
2018-03-18T03:04:26.990Z,21.77
2018-03-18T03:06:54.792Z,22.63
2018-03-18T03:09:23.065Z,21.30
2018-03-18T03:11:50.628Z,21.80
2018-03-18T03:14:18.902Z,20.97
2018-03-18T03:16:47.295Z,22.63
2018-03-18T03:19:15.563Z,20.73
2018-03-18T03:21:43.830Z,19.50
2018-03-18T03:24:11.385Z,20.57
2018-03-18T03:26:38.945Z,21.40
2018-03-18T03:29:06.813Z,21.67
2018-03-18T03:31:34.397Z,20.40
2018-03-18T03:34:02.046Z,19.93
2018-03-18T03:36:30.314Z,20.63
2018-03-18T03:38:58.558Z,19.53
2018-03-18T03:41:26.029Z,20.90
2018-03-18T03:43:53.499Z,20.97
2018-03-18T03:46:21.066Z,22.17
2018-03-18T03:48:49.470Z,20.77
2018-03-18T03:51:16.951Z,21.20
2018-03-18T03:53:44.637Z,20.83
2018-03-18T03:56:12.322Z,20.70
2018-03-18T03:58:40.597Z,20.77
2018-03-18T04:01:08.864Z,21.47
2018-03-18T04:03:36.441Z,20.47
2018-03-18T04:06:04.689Z,19.67
2018-03-18T04:08:32.321Z,20.40
2018-03-18T04:11:00.079Z,20.70
2018-03-18T04:13:27.724Z,19.73
2018-03-18T04:15:55.249Z,20.27
2018-03-18T04:18:23.494Z,21.20
2018-03-18T04:20:51.997Z,20.67
2018-03-18T04:23:19.561Z,21.07
2018-03-18T04:25:47.941Z,20.47
2018-03-18T04:28:15.413Z,19.80
2018-03-18T04:30:43.710Z,21.73
2018-03-18T04:33:11.214Z,21.33
2018-03-18T04:35:38.790Z,20.47
2018-03-18T04:38:06.345Z,20.10
2018-03-18T04:40:33.918Z,20.70
2018-03-18T04:43:02.391Z,19.17
2018-03-18T04:45:30.643Z,19.47
2018-03-18T04:47:58.119Z,19.43
2018-03-18T04:50:25.677Z,20.03
2018-03-18T04:52:53.598Z,20.23
2018-03-18T04:55:21.310Z,21.20
2018-03-18T04:57:48.782Z,18.33
2018-03-18T05:00:16.329Z,18.70
2018-03-18T05:02:44.606Z,18.70
2018-03-18T05:05:12.883Z,19.13
2018-03-18T05:07:41.126Z,18.10
2018-03-18T05:10:08.597Z,19.47
2018-03-18T05:12:36.365Z,19.67
2018-03-18T05:15:03.849Z,19.23
2018-03-18T05:17:32.093Z,19.27
2018-03-18T05:19:59.562Z,19.70
2018-03-18T05:22:27.322Z,19.10
2018-03-18T05:24:54.801Z,19.37
2018-03-18T05:27:22.336Z,19.90
2018-03-18T05:29:50.614Z,19.07
2018-03-18T05:32:18.098Z,18.83
2018-03-18T05:34:45.585Z,19.80
2018-03-18T05:37:13.093Z,20.47
2018-03-18T05:39:41.329Z,18.97
2018-03-18T05:42:08.814Z,20.07
2018-03-18T05:44:36.293Z,19.53
2018-03-18T05:47:04.559Z,18.63
2018-03-18T05:49:33.237Z,18.50
2018-03-18T05:52:00.793Z,18.70
2018-03-18T05:54:28.363Z,19.03
2018-03-18T05:56:56.679Z,18.70
2018-03-18T05:59:24.155Z,19.90
2018-03-18T06:01:51.651Z,18.40
2018-03-18T06:04:19.894Z,20.07
2018-03-18T06:06:48.210Z,19.47
2018-03-18T06:09:17.075Z,18.53
2018-03-18T06:11:45.132Z,20.70
2018-03-18T06:14:12.706Z,17.00
2018-03-18T06:16:40.187Z,19.33
2018-03-18T06:19:08.450Z,19.67
2018-03-18T06:21:36.417Z,18.73
2018-03-18T06:24:03.987Z,17.73
2018-03-18T06:26:32.263Z,19.57
2018-03-18T06:29:00.509Z,18.50
2018-03-18T06:31:28.017Z,21.10
2018-03-18T06:33:56.274Z,19.23
2018-03-18T06:36:24.510Z,18.90
2018-03-18T06:38:51.986Z,18.33
2018-03-18T06:41:19.457Z,18.17
2018-03-18T06:43:47.737Z,17.57
2018-03-18T06:46:16.246Z,18.60
2018-03-18T06:48:43.774Z,18.17
2018-03-18T06:51:12.014Z,18.47
2018-03-18T06:53:39.962Z,18.00
2018-03-18T06:56:07.441Z,17.63
2018-03-18T06:58:34.959Z,17.30
2018-03-18T07:01:02.437Z,18.43
2018-03-18T07:03:29.941Z,18.17
2018-03-18T07:05:57.514Z,18.40
2018-03-18T07:08:25.958Z,16.67
2018-03-18T07:10:53.425Z,18.80
2018-03-18T07:13:20.902Z,17.67
2018-03-18T07:15:49.277Z,17.07
2018-03-18T07:18:17.518Z,16.50
2018-03-18T07:20:45.212Z,16.37
2018-03-18T07:23:12.782Z,18.13
2018-03-18T07:25:41.022Z,17.73
2018-03-18T07:28:08.499Z,17.03
2018-03-18T07:30:36.066Z,16.17
2018-03-18T07:33:04.338Z,17.10
2018-03-18T07:35:32.209Z,17.03
2018-03-18T07:38:00.482Z,17.30
2018-03-18T07:40:28.733Z,15.90
2018-03-18T07:42:56.267Z,18.03
2018-03-18T07:45:23.777Z,16.17
2018-03-18T07:47:52.191Z,16.13
2018-03-18T07:50:19.814Z,15.83
2018-03-18T07:52:47.394Z,16.63
2018-03-18T07:55:15.862Z,17.60
2018-03-18T07:57:44.243Z,17.60
2018-03-18T08:00:12.485Z,16.53
2018-03-18T08:02:39.963Z,18.90
2018-03-18T08:05:07.434Z,19.43
2018-03-18T08:07:35.724Z,17.67
2018-03-18T08:10:03.358Z,17.00
2018-03-18T08:12:30.927Z,17.37
2018-03-18T08:14:59.614Z,17.13
2018-03-18T08:17:28.030Z,16.50
2018-03-18T08:19:55.556Z,17.03
2018-03-18T08:22:23.794Z,15.53
2018-03-18T08:24:51.279Z,16.97
2018-03-18T08:27:19.872Z,16.37
2018-03-18T08:29:48.243Z,16.20
2018-03-18T08:32:16.521Z,16.27
2018-03-18T08:34:44.758Z,15.87
2018-03-18T08:37:12.241Z,16.37
2018-03-18T08:39:40.826Z,16.87
2018-03-18T08:42:08.305Z,16.37
2018-03-18T08:44:36.546Z,16.20
2018-03-18T08:47:04.017Z,15.80
2018-03-18T08:49:31.588Z,16.13
2018-03-18T08:52:00.167Z,17.43
2018-03-18T08:54:28.402Z,16.03
2018-03-18T08:56:55.878Z,16.73
2018-03-18T08:59:23.453Z,15.97
2018-03-18T09:01:51.024Z,16.97
2018-03-18T09:04:19.305Z,16.87
2018-03-18T09:06:47.663Z,17.40
2018-03-18T09:09:15.910Z,16.33
2018-03-18T09:11:43.381Z,15.97
2018-03-18T09:14:11.158Z,16.27
2018-03-18T09:16:39.130Z,16.43
2018-03-18T09:19:07.377Z,15.60
2018-03-18T09:21:35.687Z,15.57
2018-03-18T09:24:03.973Z,15.50
2018-03-18T09:26:32.282Z,15.67
2018-03-18T09:28:59.826Z,16.27
2018-03-18T09:31:27.658Z,15.20
2018-03-18T09:33:55.197Z,16.47
2018-03-18T09:36:22.778Z,16.03
2018-03-18T09:38:50.352Z,16.17
2018-03-18T09:41:18.641Z,15.80
2018-03-18T09:43:46.208Z,16.10
2018-03-18T09:46:13.712Z,15.57
2018-03-18T09:48:41.186Z,15.83
2018-03-18T09:51:08.661Z,16.70
2018-03-18T09:53:36.923Z,15.90
2018-03-18T09:56:05.833Z,17.60
2018-03-18T09:58:33.369Z,17.60
2018-03-18T10:01:00.967Z,15.63
2018-03-18T10:03:29.698Z,17.13
2018-03-18T10:05:57.170Z,15.73
2018-03-18T10:08:24.812Z,17.53
2018-03-18T10:10:52.281Z,15.50
2018-03-18T10:13:19.752Z,16.17
2018-03-18T10:15:47.990Z,16.03
2018-03-18T10:18:15.528Z,17.00
2018-03-18T10:20:43.041Z,16.80
2018-03-18T10:23:10.602Z,15.03
2018-03-18T10:25:38.860Z,16.27
2018-03-18T10:28:06.409Z,16.70
2018-03-18T10:30:33.891Z,16.67
2018-03-18T10:33:02.202Z,15.00
2018-03-18T10:35:29.673Z,16.23
2018-03-18T10:37:57.150Z,16.10
2018-03-18T10:40:24.751Z,14.73
2018-03-18T10:42:53.018Z,14.93
2018-03-18T10:45:21.298Z,16.10
2018-03-18T10:47:49.534Z,15.40
2018-03-18T10:50:17.011Z,14.67
2018-03-18T10:52:44.530Z,14.70
2018-03-18T10:55:12.047Z,14.27
2018-03-18T10:57:40.313Z,14.97
2018-03-18T11:00:07.869Z,14.83
2018-03-18T11:02:35.471Z,16.00
2018-03-18T11:05:03.001Z,15.27
2018-03-18T11:07:31.234Z,15.33
2018-03-18T11:09:58.705Z,16.20
2018-03-18T11:12:26.182Z,14.27
2018-03-18T11:14:54.550Z,13.60
2018-03-18T11:17:22.477Z,15.63
2018-03-18T11:19:49.946Z,16.03
2018-03-18T11:22:17.934Z,15.17
2018-03-18T11:24:45.418Z,14.87
2018-03-18T11:27:13.785Z,16.03
2018-03-18T11:29:42.030Z,15.27
2018-03-18T11:32:09.514Z,13.83
2018-03-18T11:34:37.097Z,14.37
2018-03-18T11:37:05.458Z,14.20
2018-03-18T11:39:33.840Z,15.37
2018-03-18T11:42:02.143Z,14.57
2018-03-18T11:44:29.675Z,14.20
2018-03-18T11:46:58.109Z,14.57
2018-03-18T11:49:25.819Z,14.80
2018-03-18T11:51:54.098Z,14.43
2018-03-18T11:54:22.390Z,14.97
2018-03-18T11:56:50.025Z,15.27
2018-03-18T11:59:17.600Z,14.67
2018-03-18T12:01:46.078Z,14.47
2018-03-18T12:04:14.362Z,15.03
2018-03-18T12:06:42.618Z,13.60
2018-03-18T12:09:10.899Z,13.67
2018-03-18T12:11:39.136Z,14.87
2018-03-18T12:14:06.625Z,16.10
2018-03-18T12:16:34.902Z,15.67
2018-03-18T12:19:02.483Z,15.10
2018-03-18T12:21:30.023Z,13.57
2018-03-18T12:23:59.325Z,14.07
2018-03-18T12:26:27.196Z,14.70
2018-03-18T12:28:55.450Z,14.20
2018-03-18T12:31:22.918Z,15.27
2018-03-18T12:33:50.466Z,15.07
2018-03-18T12:36:17.940Z,14.30
2018-03-18T12:38:46.178Z,14.57
2018-03-18T12:41:13.664Z,15.43
2018-03-18T12:43:41.156Z,14.20
2018-03-18T12:46:08.634Z,15.10
2018-03-18T12:48:36.245Z,14.27
2018-03-18T12:51:04.867Z,13.80
2018-03-18T12:53:32.342Z,15.93
2018-03-18T12:55:59.861Z,14.57
2018-03-18T12:58:28.114Z,15.80
2018-03-18T13:00:55.686Z,14.73
2018-03-18T13:03:23.550Z,14.93
2018-03-18T13:05:51.150Z,13.50
2018-03-18T13:08:18.623Z,15.10
2018-03-18T13:10:46.103Z,15.63
2018-03-18T13:13:13.629Z,15.60
2018-03-18T13:15:41.102Z,14.47
2018-03-18T13:18:08.657Z,14.77
2018-03-18T13:20:36.144Z,14.43
2018-03-18T13:23:03.721Z,14.40
2018-03-18T13:25:32.412Z,15.77
2018-03-18T13:28:00.683Z,14.03
2018-03-18T13:30:28.966Z,14.90
2018-03-18T13:32:57.335Z,14.63
2018-03-18T13:35:24.805Z,14.53
2018-03-18T13:37:53.057Z,13.87
2018-03-18T13:40:20.730Z,15.40
2018-03-18T13:42:48.498Z,14.73
2018-03-18T13:45:16.072Z,13.93
2018-03-18T13:47:44.534Z,14.43
2018-03-18T13:50:12.094Z,14.47
2018-03-18T13:52:40.273Z,13.00
2018-03-18T13:55:08.505Z,13.33
2018-03-18T13:57:35.982Z,12.90
2018-03-18T14:00:03.504Z,13.70
2018-03-18T14:02:31.734Z,13.77
2018-03-18T14:04:59.497Z,12.67
2018-03-18T14:07:27.061Z,13.87
2018-03-18T14:09:55.343Z,13.47
2018-03-18T14:12:23.606Z,13.40
2018-03-18T14:14:55.057Z,13.33
2018-03-18T14:17:23.066Z,13.30
2018-03-18T14:19:50.538Z,13.43
2018-03-18T14:22:18.014Z,12.53
2018-03-18T14:24:45.486Z,11.80
2018-03-18T14:27:12.961Z,12.43
2018-03-18T14:29:40.496Z,12.87
2018-03-18T14:32:08.126Z,12.77
2018-03-18T14:34:35.746Z,11.27
2018-03-18T14:37:04.207Z,12.30
2018-03-18T14:39:31.682Z,11.83
2018-03-18T14:41:59.921Z,13.37
2018-03-18T14:44:27.438Z,11.43
2018-03-18T14:46:55.042Z,11.60
2018-03-18T14:49:22.568Z,12.17
2018-03-18T14:51:50.394Z,12.47
2018-03-18T14:54:17.953Z,10.87
2018-03-18T14:56:46.225Z,12.20
2018-03-18T14:59:13.707Z,10.63
2018-03-18T15:01:41.334Z,11.67
2018-03-18T15:04:08.915Z,12.10
2018-03-18T15:06:37.150Z,10.93
2018-03-18T15:09:04.646Z,12.27
2018-03-18T15:11:32.893Z,11.40
2018-03-18T15:14:00.684Z,16.20
2018-03-18T15:16:28.953Z,13.50
2018-03-18T15:18:57.254Z,15.77
2018-03-18T15:21:24.950Z,12.03
2018-03-18T15:23:52.459Z,14.30
2018-03-18T15:26:20.774Z,12.00
2018-03-18T15:28:48.250Z,13.00
2018-03-18T15:31:16.983Z,12.20
2018-03-18T15:33:45.258Z,12.20
2018-03-18T15:36:13.511Z,12.03
2018-03-18T15:38:41.042Z,13.67
2018-03-18T15:41:08.513Z,13.73
2018-03-18T15:43:35.980Z,12.63
2018-03-18T15:46:03.525Z,11.93
2018-03-18T15:48:32.043Z,15.50
2018-03-18T15:51:00.351Z,22.77
2018-03-18T15:53:27.870Z,24.90
2018-03-18T15:55:55.454Z,14.73
2018-03-18T15:58:23.011Z,14.97
2018-03-18T16:00:50.486Z,19.70
2018-03-18T16:03:17.957Z,15.17
2018-03-18T16:05:45.443Z,11.93
2018-03-18T16:08:13.035Z,15.00
2018-03-18T16:10:41.350Z,15.70
2018-03-18T16:13:08.854Z,12.93
2018-03-18T16:15:36.523Z,12.60
2018-03-18T16:18:05.097Z,13.40
2018-03-18T16:20:32.663Z,15.10
2018-03-18T16:23:01.038Z,11.37
2018-03-18T16:25:29.284Z,16.90
2018-03-18T16:27:56.761Z,14.23
2018-03-18T16:30:36.917Z,18.07
2018-03-18T16:33:04.390Z,17.03
2018-03-18T16:35:32.686Z,13.57
2018-03-18T16:38:00.257Z,16.70
2018-03-18T16:40:27.863Z,12.87
2018-03-18T16:42:55.429Z,13.57
2018-03-18T16:45:23.320Z,15.00
2018-03-18T16:47:51.788Z,14.90
2018-03-18T16:50:20.026Z,25.77
2018-03-18T16:52:47.501Z,37.20
2018-03-18T16:55:14.975Z,26.03
2018-03-18T16:57:43.771Z,34.63
2018-03-18T17:00:12.033Z,21.73
2018-03-18T17:02:39.774Z,26.60
2018-03-18T17:05:07.263Z,25.63
2018-03-18T17:07:34.822Z,20.00
2018-03-18T17:10:03.131Z,15.13
2018-03-18T17:12:30.795Z,12.70
2018-03-18T17:14:58.274Z,15.73
2018-03-18T17:17:25.886Z,12.97
2018-03-18T17:19:54.263Z,13.27
2018-03-18T17:22:22.507Z,14.73
2018-03-18T17:24:49.987Z,12.97
2018-03-18T17:27:18.243Z,15.67
2018-03-18T17:29:45.790Z,13.27
2018-03-18T17:32:13.258Z,13.87
2018-03-18T17:34:40.738Z,12.93
2018-03-18T17:37:08.949Z,11.47
2018-03-18T17:39:36.749Z,11.60
2018-03-18T17:42:04.877Z,12.17
2018-03-18T17:44:44.127Z,12.07
2018-03-18T17:47:23.701Z,12.20
2018-03-18T17:50:03.078Z,12.33
2018-03-18T17:52:42.805Z,11.70
2018-03-18T17:55:12.005Z,12.13
2018-03-18T17:57:40.628Z,18.17
2018-03-18T18:00:08.102Z,12.03
2018-03-18T18:02:35.582Z,11.53
2018-03-18T18:05:03.146Z,10.90
2018-03-18T18:07:31.871Z,12.10
2018-03-18T18:09:59.520Z,12.43
2018-03-18T18:12:27.789Z,11.47
2018-03-18T18:14:56.035Z,12.10
2018-03-18T18:17:23.651Z,12.10
2018-03-18T18:19:51.142Z,12.00
2018-03-18T18:22:18.657Z,14.17
2018-03-18T18:24:46.914Z,12.00
2018-03-18T18:27:15.187Z,13.60
2018-03-18T18:29:42.769Z,12.83
2018-03-18T18:32:10.307Z,13.53
2018-03-18T18:34:37.865Z,13.90
2018-03-18T18:37:05.465Z,16.67
2018-03-18T18:39:33.182Z,14.03
2018-03-18T18:42:00.756Z,13.20
2018-03-18T18:44:29.030Z,15.10
2018-03-18T18:46:57.502Z,14.73
2018-03-18T18:49:25.170Z,16.53
2018-03-18T18:51:53.057Z,12.63
2018-03-18T18:54:20.753Z,14.30
2018-03-18T18:56:48.533Z,12.17
2018-03-18T18:59:16.097Z,11.83
2018-03-18T19:01:43.569Z,12.40
2018-03-18T19:04:11.269Z,13.93
2018-03-18T19:06:38.813Z,11.47
2018-03-18T19:09:06.846Z,11.17
2018-03-18T19:11:34.318Z,14.10
2018-03-18T19:14:02.980Z,11.63
2018-03-18T19:16:30.458Z,10.97
2018-03-18T19:18:58.042Z,12.23
2018-03-18T19:21:26.510Z,10.43
2018-03-18T19:23:54.188Z,14.73
2018-03-18T19:26:22.554Z,12.83
2018-03-18T19:28:50.842Z,15.03
2018-03-18T19:31:19.326Z,21.57
2018-03-18T19:33:47.581Z,24.30
2018-03-18T19:36:15.244Z,16.13
2018-03-18T19:38:42.810Z,21.20
2018-03-18T19:41:11.050Z,15.43
2018-03-18T19:43:38.525Z,15.30
2018-03-18T19:46:06.001Z,13.37
2018-03-18T19:48:34.256Z,11.07
2018-03-18T19:51:01.730Z,11.27
2018-03-18T19:53:29.969Z,9.47
2018-03-18T19:55:57.462Z,10.20
2018-03-18T19:58:25.737Z,11.30
2018-03-18T20:00:53.598Z,11.80
2018-03-18T20:03:21.171Z,10.47
2018-03-18T20:05:49.447Z,10.00
2018-03-18T20:08:17.753Z,10.77
2018-03-18T20:10:45.222Z,9.93
2018-03-18T20:13:12.735Z,11.10
2018-03-18T20:15:40.979Z,11.27
2018-03-18T20:18:09.215Z,11.00
2018-03-18T20:20:36.702Z,10.60
2018-03-18T20:23:05.195Z,10.27
2018-03-18T20:25:32.666Z,9.80
2018-03-18T20:28:00.641Z,10.70
2018-03-18T20:30:28.205Z,10.47
2018-03-18T20:32:55.677Z,9.70
2018-03-18T20:35:23.921Z,10.20
2018-03-18T20:37:51.431Z,10.30
2018-03-18T20:40:19.005Z,10.83
2018-03-18T20:42:46.526Z,9.90
2018-03-18T20:45:14.769Z,10.20
2018-03-18T20:47:42.242Z,9.87
2018-03-18T20:50:09.804Z,10.43
2018-03-18T20:52:38.383Z,10.30
2018-03-18T20:55:05.945Z,10.67
2018-03-18T20:57:34.218Z,10.23
2018-03-18T21:00:01.882Z,10.23
2018-03-18T21:02:30.259Z,10.43
2018-03-18T21:04:58.133Z,10.23
2018-03-18T21:07:25.691Z,11.47
2018-03-18T21:09:53.354Z,10.83
2018-03-18T21:12:21.117Z,12.37
2018-03-18T21:14:48.743Z,10.50
2018-03-18T21:17:16.334Z,11.83
2018-03-18T21:19:44.025Z,12.43
2018-03-18T21:22:12.267Z,11.30
2018-03-18T21:24:39.889Z,13.23
2018-03-18T21:27:07.403Z,11.50
2018-03-18T21:29:34.881Z,9.43
2018-03-18T21:32:03.162Z,10.70
2018-03-18T21:34:38.457Z,9.93
2018-03-18T21:37:06.055Z,11.20
2018-03-18T21:39:34.669Z,10.00
2018-03-18T21:42:02.175Z,10.90
2018-03-18T21:44:29.747Z,11.40
2018-03-18T21:46:57.343Z,10.93
2018-03-18T21:49:24.813Z,10.73
2018-03-18T21:51:52.346Z,10.77
2018-03-18T21:54:20.813Z,11.07
2018-03-18T21:56:49.186Z,10.57
2018-03-18T21:59:16.853Z,9.57
2018-03-18T22:01:45.210Z,9.57
2018-03-18T22:04:12.773Z,10.80
2018-03-18T22:06:41.370Z,11.23
2018-03-18T22:09:08.990Z,10.13
2018-03-18T22:11:36.500Z,9.63
2018-03-18T22:14:04.916Z,10.57
2018-03-18T22:16:32.425Z,10.17
2018-03-18T22:18:59.993Z,10.20
2018-03-18T22:21:28.265Z,9.97
2018-03-18T22:23:55.839Z,11.63
2018-03-18T22:26:24.150Z,10.43
2018-03-18T22:28:51.870Z,9.67
2018-03-18T22:31:20.648Z,10.53
2018-03-18T22:33:48.222Z,9.80
2018-03-18T22:36:16.698Z,9.97
2018-03-18T22:38:44.267Z,10.07
2018-03-18T22:41:12.514Z,9.23
2018-03-18T22:43:40.142Z,9.77
2018-03-18T22:46:07.620Z,9.80
2018-03-18T22:48:35.998Z,10.50
2018-03-18T22:51:03.493Z,10.00
2018-03-18T22:53:31.357Z,9.50
2018-03-18T22:55:58.922Z,8.83
2018-03-18T22:58:26.393Z,9.67
2018-03-18T23:00:54.756Z,10.10
2018-03-18T23:03:22.420Z,9.57
2018-03-18T23:05:50.230Z,9.83
2018-03-18T23:08:17.849Z,8.97
2018-03-18T23:10:45.414Z,9.73
2018-03-18T23:13:13.686Z,9.33
2018-03-18T23:15:41.917Z,9.90
2018-03-18T23:18:09.531Z,9.40
2018-03-18T23:20:37.794Z,9.10
2018-03-18T23:23:05.368Z,8.97
2018-03-18T23:25:33.629Z,9.13
2018-03-18T23:28:01.194Z,9.10
2018-03-18T23:30:28.945Z,8.90
2018-03-18T23:32:56.518Z,8.13
2018-03-18T23:35:23.989Z,8.20
2018-03-18T23:37:52.233Z,9.80
2018-03-18T23:40:19.706Z,8.77
2018-03-18T23:42:47.275Z,8.60
2018-03-18T23:45:15.613Z,9.13
2018-03-18T23:47:43.162Z,8.80
2018-03-18T23:50:10.675Z,9.63
2018-03-18T23:52:38.954Z,9.37
2018-03-18T23:55:07.553Z,9.37
2018-03-18T23:57:35.186Z,8.90
